Time;durP1;ratioP1;P1;durP2;ratioP2;P2;SDS_P1;SDS_P2;PMS_P1;PMS_P2;Temp;Humidity;BMP_temperature;BMP_pressure;BME280_temperature;BME280_humidity;BME280_pressure;Samples;Min_cycle;Max_cycle;Signal;HPM_P1;HPM_P2
2021/09/01 00:00:54;;;;;;;2.10;1.20;;;15.90;99.90;;;;;;5098825;28;20418;-62
2021/09/01 00:03:21;;;;;;;1.70;1.20;;;15.90;99.90;;;;;;5098907;28;20424;-62
2021/09/01 00:05:47;;;;;;;1.80;1.10;;;15.90;99.90;;;;;;5098298;28;20888;-62
2021/09/01 00:08:14;;;;;;;1.40;1.10;;;15.90;99.90;;;;;;5097780;28;20516;-61
2021/09/01 00:10:41;;;;;;;1.85;1.30;;;15.80;99.90;;;;;;5096580;28;20418;-62
2021/09/01 00:13:10;;;;;;;1.90;1.20;;;15.90;99.90;;;;;;5096542;28;20995;-62
2021/09/01 00:15:37;;;;;;;3.00;1.10;;;15.90;99.90;;;;;;5097107;28;20741;-62
2021/09/01 00:18:04;;;;;;;2.17;1.20;;;15.80;99.90;;;;;;5096184;28;20437;-61
2021/09/01 00:20:31;;;;;;;1.55;1.10;;;15.80;99.90;;;;;;5097100;28;20418;-61
2021/09/01 00:22:57;;;;;;;2.60;1.45;;;15.90;99.90;;;;;;5096983;28;20440;-61
2021/09/01 00:25:24;;;;;;;2.10;1.20;;;15.80;99.90;;;;;;5096983;28;20424;-62
2021/09/01 00:27:51;;;;;;;2.00;1.20;;;15.80;99.90;;;;;;5097960;28;20421;-62
2021/09/01 00:30:20;;;;;;;2.25;1.20;;;15.70;99.90;;;;;;5097952;28;20513;-63
2021/09/01 00:32:46;;;;;;;2.08;1.10;;;15.60;99.90;;;;;;5098361;28;20840;-62
2021/09/01 00:35:13;;;;;;;1.70;1.30;;;15.60;99.90;;;;;;5097002;28;20810;-61
2021/09/01 00:37:40;;;;;;;2.20;1.40;;;15.60;99.90;;;;;;5096673;28;20428;-60
2021/09/01 00:40:08;;;;;;;2.33;1.20;;;15.60;99.90;;;;;;5096278;28;20488;-61
2021/09/01 00:42:36;;;;;;;2.00;1.30;;;15.50;99.90;;;;;;5095345;28;20841;-61
2021/09/01 00:45:06;;;;;;;3.10;1.60;;;15.50;99.90;;;;;;5095831;28;20418;-62
2021/09/01 00:47:36;;;;;;;2.25;1.30;;;15.50;99.90;;;;;;5096008;28;20778;-61
2021/09/01 00:50:04;;;;;;;2.30;1.40;;;15.50;99.90;;;;;;5095242;28;20417;-61
2021/09/01 00:52:32;;;;;;;2.10;1.30;;;15.50;99.90;;;;;;5095849;28;20417;-61
2021/09/01 00:55:00;;;;;;;2.00;1.20;;;15.40;99.90;;;;;;5096034;28;20422;-61
2021/09/01 00:57:27;;;;;;;2.00;1.30;;;15.40;99.90;;;;;;5094509;28;20481;-62
2021/09/01 00:59:56;;;;;;;3.28;1.50;;;15.40;99.90;;;;;;5096223;28;20425;-62
2021/09/01 01:02:23;;;;;;;2.70;1.50;;;15.30;99.90;;;;;;5096048;28;20442;-62
2021/09/01 01:04:52;;;;;;;2.10;1.13;;;15.30;99.90;;;;;;5095626;28;20414;-61
2021/09/01 01:07:20;;;;;;;1.60;1.20;;;15.30;99.90;;;;;;5093716;28;20418;-61
2021/09/01 01:09:48;;;;;;;2.38;1.20;;;15.30;99.90;;;;;;5094471;28;20429;-62
2021/09/01 01:12:19;;;;;;;3.00;1.50;;;15.30;99.90;;;;;;5094422;28;20741;-61
2021/09/01 01:14:48;;;;;;;1.80;1.20;;;15.30;99.90;;;;;;5094404;28;20432;-61
2021/09/01 01:17:17;;;;;;;2.65;1.40;;;15.30;99.90;;;;;;5095737;28;20429;-61
2021/09/01 01:19:46;;;;;;;3.20;1.70;;;15.30;99.90;;;;;;5097460;28;20436;-61
2021/09/01 01:22:15;;;;;;;2.28;1.40;;;15.20;99.90;;;;;;5097589;28;20418;-61
2021/09/01 01:24:51;;;;;;;3.47;1.60;;;15.20;99.90;;;;;;5096343;28;20444;-61
2021/09/01 01:27:27;;;;;;;3.00;1.40;;;15.20;99.90;;;;;;5097109;28;20417;-62
2021/09/01 01:29:56;;;;;;;1.90;1.30;;;15.30;99.90;;;;;;5097304;28;20461;-62
2021/09/01 01:32:28;;;;;;;2.90;1.40;;;15.30;99.90;;;;;;5096963;28;20414;-61
2021/09/01 01:34:55;;;;;;;2.10;1.40;;;15.20;99.90;;;;;;5096621;28;20416;-62
2021/09/01 01:37:22;;;;;;;2.50;1.40;;;15.20;99.90;;;;;;5096910;28;20424;-62
2021/09/01 01:39:49;;;;;;;2.40;1.30;;;15.20;99.90;;;;;;5094368;28;20459;-62
2021/09/01 01:42:16;;;;;;;1.80;1.40;;;15.20;99.90;;;;;;5095492;28;20517;-62
2021/09/01 01:44:44;;;;;;;1.60;1.20;;;15.20;99.90;;;;;;5095713;28;20421;-62
2021/09/01 01:47:11;;;;;;;2.30;1.30;;;15.20;99.90;;;;;;5094770;28;20441;-62
2021/09/01 01:49:38;;;;;;;1.85;1.23;;;15.20;99.90;;;;;;5094153;28;20426;-62
2021/09/01 01:52:05;;;;;;;1.90;1.30;;;15.10;99.90;;;;;;5093829;28;20426;-62
2021/09/01 01:54:32;;;;;;;1.90;1.20;;;15.10;99.90;;;;;;5094970;28;20430;-62
2021/09/01 01:56:59;;;;;;;2.28;1.30;;;15.10;99.90;;;;;;5095512;28;20418;-62
2021/09/01 01:59:26;;;;;;;1.80;1.20;;;15.00;99.90;;;;;;5096314;28;20506;-62
2021/09/01 02:01:54;;;;;;;2.10;1.40;;;14.90;99.90;;;;;;5096097;28;20422;-62
2021/09/01 02:04:21;;;;;;;1.60;1.20;;;14.90;99.90;;;;;;5095259;28;20509;-62
2021/09/01 02:06:48;;;;;;;2.20;1.30;;;15.00;99.90;;;;;;5094323;28;20418;-62
2021/09/01 02:09:14;;;;;;;1.67;1.20;;;15.10;99.90;;;;;;5093924;28;20430;-62
2021/09/01 02:11:42;;;;;;;2.28;1.60;;;15.10;99.90;;;;;;5094788;28;20418;-62
2021/09/01 02:14:08;;;;;;;1.80;1.30;;;15.20;99.90;;;;;;5093467;28;20441;-62
2021/09/01 02:16:35;;;;;;;2.20;1.30;;;15.20;99.90;;;;;;5094541;28;20418;-62
2021/09/01 02:19:03;;;;;;;1.88;1.40;;;15.20;99.90;;;;;;5092836;28;20429;-62
2021/09/01 02:21:30;;;;;;;2.60;1.30;;;15.30;99.90;;;;;;5094010;28;20508;-62
2021/09/01 02:23:57;;;;;;;2.20;1.40;;;15.20;99.90;;;;;;5094872;28;20446;-62
2021/09/01 02:26:24;;;;;;;1.70;1.20;;;15.20;99.90;;;;;;5095936;28;20425;-62
2021/09/01 02:28:51;;;;;;;2.92;1.30;;;15.20;99.90;;;;;;5095719;28;20436;-63
2021/09/01 02:31:18;;;;;;;2.70;1.30;;;15.20;99.90;;;;;;5095666;28;20418;-62
2021/09/01 02:33:45;;;;;;;2.70;1.50;;;15.30;99.90;;;;;;5096043;28;20434;-63
2021/09/01 02:36:13;;;;;;;2.10;1.50;;;15.20;99.90;;;;;;5095731;28;20417;-62
2021/09/01 02:38:43;;;;;;;2.45;1.40;;;15.20;99.90;;;;;;5094819;28;20859;-63
2021/09/01 02:41:11;;;;;;;1.85;1.20;;;15.20;99.90;;;;;;5093551;28;21024;-62
2021/09/01 02:43:38;;;;;;;1.88;1.40;;;15.10;99.90;;;;;;5095756;28;20841;-62
2021/09/01 02:46:05;;;;;;;3.10;1.50;;;15.00;99.90;;;;;;5095597;28;20440;-62
2021/09/01 02:48:31;;;;;;;2.20;1.40;;;14.90;99.90;;;;;;5095545;28;20730;-62
2021/09/01 02:50:59;;;;;;;2.90;1.40;;;14.80;99.90;;;;;;5095392;28;20421;-62
2021/09/01 02:53:27;;;;;;;1.80;1.27;;;14.90;99.90;;;;;;5095524;28;20525;-62
2021/09/01 02:55:54;;;;;;;2.42;1.60;;;14.90;99.90;;;;;;5096006;28;20719;-62
2021/09/01 02:58:20;;;;;;;2.00;1.30;;;14.90;99.90;;;;;;5095452;28;20426;-62
2021/09/01 03:00:48;;;;;;;2.47;1.52;;;14.90;99.90;;;;;;5096229;28;20424;-62
2021/09/01 03:03:14;;;;;;;2.25;1.45;;;14.90;99.90;;;;;;5095506;28;20432;-62
2021/09/01 03:05:41;;;;;;;3.20;1.58;;;14.90;99.90;;;;;;5095246;28;20430;-62
2021/09/01 03:08:08;;;;;;;2.70;1.70;;;14.80;99.90;;;;;;5095048;28;20833;-62
2021/09/01 03:10:36;;;;;;;2.58;1.48;;;14.80;99.90;;;;;;5095400;28;20506;-62
2021/09/01 03:13:04;;;;;;;2.60;1.70;;;14.80;99.90;;;;;;5094810;28;20444;-62
2021/09/01 03:15:31;;;;;;;3.83;1.80;;;14.80;99.90;;;;;;5095080;28;20695;-62
2021/09/01 03:17:58;;;;;;;3.05;1.70;;;14.80;99.90;;;;;;5094756;28;20745;-62
2021/09/01 03:20:25;;;;;;;2.47;1.80;;;14.80;99.90;;;;;;5093907;28;20713;-62
2021/09/01 03:22:52;;;;;;;3.25;1.80;;;14.80;99.90;;;;;;5094407;28;20421;-62
2021/09/01 03:25:19;;;;;;;2.30;1.80;;;14.70;99.90;;;;;;5093105;28;20417;-62
2021/09/01 03:27:47;;;;;;;2.50;1.65;;;14.70;99.90;;;;;;5094749;28;20417;-62
2021/09/01 03:30:14;;;;;;;2.47;1.52;;;14.70;99.90;;;;;;5096546;28;20424;-62
2021/09/01 03:32:41;;;;;;;2.95;1.90;;;14.70;99.90;;;;;;5098344;28;20432;-62
2021/09/01 03:35:08;;;;;;;2.70;1.90;;;14.60;99.90;;;;;;5099097;28;20429;-62
2021/09/01 03:37:35;;;;;;;2.75;2.00;;;14.70;99.90;;;;;;5099095;28;20722;-62
2021/09/01 03:40:03;;;;;;;2.60;1.80;;;14.70;99.90;;;;;;5098267;28;20421;-62
2021/09/01 03:42:30;;;;;;;4.00;1.90;;;14.70;99.90;;;;;;5099118;28;20487;-62
2021/09/01 03:44:58;;;;;;;2.65;1.65;;;14.80;99.90;;;;;;5098697;28;20470;-62
2021/09/01 03:47:25;;;;;;;2.70;1.95;;;14.80;99.90;;;;;;5098364;28;20418;-62
2021/09/01 03:49:52;;;;;;;3.35;2.08;;;14.80;99.90;;;;;;5098388;28;20428;-62
2021/09/01 03:52:18;;;;;;;3.80;2.03;;;14.80;99.90;;;;;;5098385;28;20864;-62
2021/09/01 03:54:45;;;;;;;2.55;1.90;;;14.70;99.90;;;;;;5098314;28;20432;-62
2021/09/01 03:57:12;;;;;;;2.97;1.60;;;14.70;99.90;;;;;;5098967;28;20472;-62
2021/09/01 03:59:39;;;;;;;2.47;1.55;;;14.70;99.90;;;;;;5098946;28;20425;-62
2021/09/01 04:02:07;;;;;;;3.47;1.60;;;14.70;99.90;;;;;;5098628;28;20428;-62
2021/09/01 04:04:34;;;;;;;2.90;1.60;;;14.70;99.90;;;;;;5099043;28;20428;-61
2021/09/01 04:07:02;;;;;;;3.30;2.10;;;14.70;99.90;;;;;;5098834;28;20718;-62
2021/09/01 04:09:28;;;;;;;2.67;1.80;;;14.70;99.90;;;;;;5098244;28;20437;-63
2021/09/01 04:11:55;;;;;;;1.92;1.50;;;14.80;99.90;;;;;;5097851;28;20428;-63
2021/09/01 04:14:23;;;;;;;2.80;1.45;;;14.80;99.90;;;;;;5097294;28;20429;-60
2021/09/01 04:16:50;;;;;;;4.30;1.70;;;14.80;99.90;;;;;;5098000;28;20422;-60
2021/09/01 04:19:18;;;;;;;2.70;1.70;;;14.90;99.90;;;;;;5098267;28;20426;-60
2021/09/01 04:21:45;;;;;;;2.20;1.40;;;14.90;99.90;;;;;;5097944;28;20416;-60
2021/09/01 04:24:12;;;;;;;2.97;1.80;;;14.90;99.90;;;;;;5096083;28;20417;-60
2021/09/01 04:26:38;;;;;;;2.07;1.40;;;14.80;99.90;;;;;;5097177;28;20496;-61
2021/09/01 04:29:05;;;;;;;3.00;1.63;;;14.80;99.90;;;;;;5097060;28;20429;-62
2021/09/01 04:31:32;;;;;;;2.85;1.50;;;14.90;99.90;;;;;;5097682;28;20821;-62
2021/09/01 04:33:59;;;;;;;2.40;1.50;;;14.90;99.90;;;;;;5097075;28;20426;-62
2021/09/01 04:36:27;;;;;;;2.50;1.30;;;15.00;99.90;;;;;;5097320;28;20414;-62
2021/09/01 04:38:54;;;;;;;3.00;1.90;;;15.00;99.90;;;;;;5095034;28;20732;-62
2021/09/01 04:41:21;;;;;;;2.60;1.50;;;15.00;99.90;;;;;;5095176;28;20414;-61
2021/09/01 04:43:48;;;;;;;2.90;2.08;;;15.00;99.90;;;;;;5112503;28;20526;-62
2021/09/01 04:46:15;;;;;;;3.28;1.95;;;15.00;99.90;;;;;;5115795;28;20411;-62
2021/09/01 04:48:46;;;;;;;1.90;1.50;;;15.00;99.90;;;;;;5110415;28;20434;-60
2021/09/01 04:51:14;;;;;;;2.53;1.75;;;15.00;99.90;;;;;;5107144;28;20427;-60
2021/09/01 04:53:42;;;;;;;2.28;1.80;;;15.00;99.90;;;;;;5102397;28;20483;-60
2021/09/01 04:56:09;;;;;;;3.47;2.00;;;15.00;99.90;;;;;;5098135;28;20470;-60
2021/09/01 04:58:40;;;;;;;2.73;1.50;;;15.00;99.90;;;;;;5115711;28;20452;-60
2021/09/01 05:01:08;;;;;;;2.80;1.80;;;15.10;99.90;;;;;;5115457;28;20493;-60
2021/09/01 05:03:36;;;;;;;2.97;2.00;;;15.10;99.90;;;;;;5115319;28;20747;-60
2021/09/01 05:06:02;;;;;;;3.40;1.58;;;15.10;99.90;;;;;;5115590;28;20800;-61
2021/09/01 05:08:29;;;;;;;2.38;1.50;;;15.10;99.90;;;;;;5112694;28;20430;-60
2021/09/01 05:10:57;;;;;;;2.90;1.83;;;15.10;99.90;;;;;;5095932;28;20435;-62
2021/09/01 05:13:24;;;;;;;3.40;2.70;;;15.10;99.90;;;;;;5096674;28;20429;-62
2021/09/01 05:15:51;;;;;;;3.70;1.88;;;14.80;99.90;;;;;;5096580;28;20432;-61
2021/09/01 05:18:18;;;;;;;2.70;1.80;;;14.60;99.90;;;;;;5096940;28;20426;-61
2021/09/01 05:20:48;;;;;;;2.95;1.70;;;14.40;99.90;;;;;;5096971;28;20424;-60
2021/09/01 05:23:17;;;;;;;3.30;1.58;;;14.40;99.90;;;;;;5094965;28;20436;-60
2021/09/01 05:25:53;;;;;;;4.03;2.95;;;14.40;99.90;;;;;;5095962;28;20421;-59
2021/09/01 05:28:26;;;;;;;2.95;2.25;;;14.40;99.90;;;;;;5095708;28;20725;-60
2021/09/01 05:30:53;;;;;;;4.10;1.73;;;14.30;99.90;;;;;;5094069;28;20565;-60
2021/09/01 05:33:21;;;;;;;4.93;2.72;;;14.20;99.90;;;;;;5095796;28;20482;-60
2021/09/01 05:35:49;;;;;;;4.07;2.33;;;14.20;99.90;;;;;;5096295;28;20865;-60
2021/09/01 05:38:18;;;;;;;3.20;2.88;;;14.10;99.90;;;;;;5096188;28;20499;-60
2021/09/01 05:40:47;;;;;;;3.45;2.45;;;14.20;99.90;;;;;;5096070;28;20779;-60
2021/09/01 05:43:16;;;;;;;4.60;2.80;;;14.10;99.90;;;;;;5095128;28;20445;-60
2021/09/01 05:45:45;;;;;;;4.43;3.05;;;13.90;99.90;;;;;;5095114;28;20458;-61
2021/09/01 05:48:13;;;;;;;6.00;4.03;;;13.80;99.90;;;;;;5093621;28;20674;-62
2021/09/01 05:50:42;;;;;;;2.97;2.13;;;13.60;99.90;;;;;;5093329;28;20717;-59
2021/09/01 05:53:09;;;;;;;6.18;3.60;;;13.70;99.90;;;;;;5092306;28;20430;-59
2021/09/01 05:55:43;;;;;;;6.53;3.70;;;13.80;99.90;;;;;;5092100;28;20760;-60
2021/09/01 05:58:15;;;;;;;3.38;2.33;;;13.80;99.90;;;;;;5093230;28;20430;-59
2021/09/01 06:00:44;;;;;;;5.80;4.05;;;14.00;99.90;;;;;;5093769;28;20533;-60
2021/09/01 06:03:17;;;;;;;4.85;3.20;;;14.20;99.90;;;;;;5093557;28;20437;-60
2021/09/01 06:05:45;;;;;;;5.85;3.72;;;14.10;99.90;;;;;;5093156;28;20418;-61
2021/09/01 06:08:13;;;;;;;4.70;3.40;;;14.10;99.90;;;;;;5094419;28;20482;-61
2021/09/01 06:10:40;;;;;;;3.20;2.70;;;14.30;99.90;;;;;;5094329;28;20421;-61
2021/09/01 06:13:09;;;;;;;4.90;2.97;;;14.60;99.90;;;;;;5094993;28;20465;-61
2021/09/01 06:15:38;;;;;;;4.07;2.35;;;14.90;99.90;;;;;;5093558;28;20430;-61
2021/09/01 06:18:07;;;;;;;5.67;3.33;;;15.10;99.90;;;;;;5093535;28;20438;-62
2021/09/01 06:20:35;;;;;;;4.40;4.00;;;15.30;99.90;;;;;;5091972;28;20421;-61
2021/09/01 06:23:04;;;;;;;6.45;4.10;;;15.30;99.90;;;;;;5089413;28;20434;-62
2021/09/01 06:25:31;;;;;;;7.20;4.30;;;15.00;99.90;;;;;;5092727;28;20413;-62
2021/09/01 06:27:59;;;;;;;5.73;4.40;;;14.70;99.90;;;;;;5092367;28;20425;-61
2021/09/01 06:30:26;;;;;;;4.90;3.65;;;14.70;99.90;;;;;;5091823;28;20841;-60
2021/09/01 06:32:54;;;;;;;7.05;4.00;;;14.70;99.90;;;;;;5092870;28;20425;-60
2021/09/01 06:35:23;;;;;;;4.20;3.00;;;14.80;99.90;;;;;;5093571;28;20695;-62
2021/09/01 06:37:50;;;;;;;5.13;3.63;;;15.10;99.90;;;;;;5094129;28;20461;-62
2021/09/01 06:40:18;;;;;;;5.97;4.80;;;15.40;99.90;;;;;;5094875;28;20722;-62
2021/09/01 06:42:45;;;;;;;6.82;3.88;;;15.50;99.90;;;;;;5093470;28;20425;-61
2021/09/01 06:45:13;;;;;;;7.60;4.47;;;15.60;99.90;;;;;;5093868;28;20509;-62
2021/09/01 06:47:42;;;;;;;6.63;3.80;;;15.90;99.90;;;;;;5093407;28;20432;-59
2021/09/01 06:50:10;;;;;;;5.88;5.07;;;15.90;99.90;;;;;;5093267;28;20721;-60
2021/09/01 06:52:40;;;;;;;7.47;5.20;;;15.90;99.90;;;;;;5092829;28;20610;-60
2021/09/01 06:55:07;;;;;;;8.63;5.15;;;15.80;99.90;;;;;;5092388;28;20426;-60
2021/09/01 06:57:34;;;;;;;5.80;3.75;;;15.70;99.90;;;;;;5091706;28;20469;-59
2021/09/01 07:00:02;;;;;;;7.03;4.80;;;15.60;99.90;;;;;;5095246;28;20425;-60
2021/09/01 07:02:30;;;;;;;5.53;4.50;;;15.60;99.90;;;;;;5095249;28;20428;-59
2021/09/01 07:05:03;;;;;;;8.40;4.55;;;15.40;99.90;;;;;;5101054;28;20420;-60
2021/09/01 07:07:31;;;;;;;5.95;5.25;;;15.40;99.90;;;;;;5112242;28;20424;-59
2021/09/01 07:09:59;;;;;;;7.38;5.07;;;15.50;99.90;;;;;;5110421;28;20414;-60
2021/09/01 07:12:27;;;;;;;6.43;5.38;;;15.40;99.90;;;;;;5110035;28;20733;-59
2021/09/01 07:14:54;;;;;;;7.28;5.57;;;15.30;99.90;;;;;;5111016;28;20431;-60
2021/09/01 07:17:21;;;;;;;8.32;6.07;;;15.20;99.90;;;;;;5109329;28;20420;-61
2021/09/01 07:19:48;;;;;;;9.07;5.28;;;15.10;99.90;;;;;;5110950;28;20488;-59
2021/09/01 07:22:15;;;;;;;6.47;4.60;;;15.10;99.90;;;;;;5110717;28;20452;-60
2021/09/01 07:24:41;;;;;;;7.03;5.30;;;15.40;99.90;;;;;;5110328;28;20507;-61
2021/09/01 07:27:10;;;;;;;6.50;5.00;;;15.90;99.90;;;;;;5112305;28;20815;-61
2021/09/01 07:29:37;;;;;;;8.00;4.75;;;16.10;99.90;;;;;;5113448;28;20428;-61
2021/09/01 07:32:04;;;;;;;6.60;4.90;;;16.40;99.90;;;;;;5114420;28;20422;-61
2021/09/01 07:34:31;;;;;;;7.90;6.88;;;16.60;99.90;;;;;;5114434;28;20420;-61
2021/09/01 07:36:58;;;;;;;8.10;4.70;;;16.50;99.90;;;;;;5114085;28;20977;-61
2021/09/01 07:39:25;;;;;;;8.05;5.30;;;16.30;99.90;;;;;;5113720;28;21010;-61
2021/09/01 07:41:52;;;;;;;8.18;6.43;;;16.10;99.90;;;;;;5114010;28;20520;-61
2021/09/01 07:44:20;;;;;;;7.57;5.10;;;15.80;99.90;;;;;;5112484;28;20430;-61
2021/09/01 07:46:47;;;;;;;4.70;4.20;;;15.80;99.90;;;;;;5112962;28;20416;-62
2021/09/01 07:49:14;;;;;;;6.28;3.88;;;16.00;99.90;;;;;;5112898;28;20426;-61
2021/09/01 07:51:40;;;;;;;8.40;5.50;;;16.20;99.90;;;;;;5112636;28;20734;-61
2021/09/01 07:54:07;;;;;;;6.20;3.97;;;16.20;99.90;;;;;;5111190;28;20435;-62
2021/09/01 07:56:34;;;;;;;8.60;5.72;;;16.30;99.90;;;;;;5112511;28;20426;-62
2021/09/01 07:59:01;;;;;;;6.88;4.72;;;16.40;99.90;;;;;;5112586;28;20430;-61
2021/09/01 08:01:29;;;;;;;5.97;4.57;;;16.40;99.90;;;;;;5112396;28;20416;-62
2021/09/01 08:03:56;;;;;;;7.35;4.80;;;16.50;99.90;;;;;;5112740;28;20424;-62
2021/09/01 08:06:23;;;;;;;6.90;3.70;;;16.60;99.90;;;;;;5112269;28;20412;-62
2021/09/01 08:08:51;;;;;;;6.88;5.60;;;16.90;99.90;;;;;;5112584;28;20824;-61
2021/09/01 08:11:17;;;;;;;4.70;4.00;;;16.90;99.90;;;;;;5111517;28;20420;-61
2021/09/01 08:13:44;;;;;;;4.60;4.10;;;16.90;99.90;;;;;;5108404;28;20691;-62
2021/09/01 08:16:11;;;;;;;4.90;4.38;;;17.10;99.90;;;;;;5110171;28;20435;-62
2021/09/01 08:18:39;;;;;;;5.35;3.30;;;17.20;99.90;;;;;;5114660;28;20438;-61
2021/09/01 08:21:06;;;;;;;5.57;4.47;;;17.30;99.90;;;;;;5114513;28;20430;-61
2021/09/01 08:23:33;;;;;;;4.50;2.90;;;17.10;99.90;;;;;;5113272;28;20715;-61
2021/09/01 08:26:00;;;;;;;4.80;3.33;;;17.30;99.90;;;;;;5113777;28;20412;-61
2021/09/01 08:28:27;;;;;;;6.33;4.10;;;17.50;99.90;;;;;;5114145;28;20430;-61
2021/09/01 08:30:54;;;;;;;6.63;5.13;;;17.50;99.90;;;;;;5110799;28;20412;-61
2021/09/01 08:33:21;;;;;;;8.02;4.43;;;17.50;99.90;;;;;;5110164;28;20435;-61
2021/09/01 08:35:49;;;;;;;5.43;3.83;;;17.50;99.90;;;;;;5111761;28;20518;-61
2021/09/01 08:38:16;;;;;;;3.80;3.00;;;17.70;99.90;;;;;;5112568;28;20431;-61
2021/09/01 08:40:45;;;;;;;4.40;2.90;;;17.80;99.90;;;;;;5114560;28;20419;-62
2021/09/01 08:43:12;;;;;;;3.42;2.30;;;17.90;99.90;;;;;;5114513;28;20568;-61
2021/09/01 08:45:39;;;;;;;3.70;2.77;;;18.00;99.90;;;;;;5115291;28;20697;-61
2021/09/01 08:48:07;;;;;;;3.40;2.90;;;18.20;99.90;;;;;;5117076;28;20431;-59
2021/09/01 08:50:34;;;;;;;3.95;3.15;;;18.30;99.90;;;;;;5117250;28;20416;-61
2021/09/01 08:53:02;;;;;;;3.85;2.58;;;18.30;99.90;;;;;;5117218;28;20451;-60
2021/09/01 08:55:29;;;;;;;4.60;3.25;;;18.40;99.90;;;;;;5116790;28;20424;-60
2021/09/01 08:57:56;;;;;;;5.05;3.03;;;18.30;99.90;;;;;;5116415;28;20536;-60
2021/09/01 09:00:25;;;;;;;4.40;3.00;;;18.20;99.90;;;;;;5115573;28;20734;-60
2021/09/01 09:02:59;;;;;;;3.60;3.30;;;18.10;99.90;;;;;;5114679;28;20845;-62
2021/09/01 09:05:32;;;;;;;3.85;2.33;;;18.10;99.90;;;;;;5113191;28;20416;-62
2021/09/01 09:07:59;;;;;;;3.53;2.38;;;18.30;99.90;;;;;;5112844;28;20428;-62
2021/09/01 09:10:29;;;;;;;3.13;2.33;;;18.50;99.90;;;;;;5114056;28;20511;-63
2021/09/01 09:12:57;;;;;;;4.47;2.28;;;18.60;99.90;;;;;;5114155;28;20446;-62
2021/09/01 09:15:24;;;;;;;5.90;3.40;;;18.80;99.90;;;;;;5114113;28;20428;-61
2021/09/01 09:17:51;;;;;;;2.90;2.20;;;18.70;99.90;;;;;;5113999;28;20424;-60
2021/09/01 09:20:26;;;;;;;3.20;2.67;;;18.70;99.90;;;;;;5110235;28;20466;-60
2021/09/01 09:22:53;;;;;;;3.13;2.25;;;18.80;99.90;;;;;;5097517;28;20436;-60
2021/09/01 09:25:23;;;;;;;2.65;1.90;;;19.00;99.90;;;;;;5093676;28;20454;-60
2021/09/01 09:27:52;;;;;;;3.17;2.05;;;19.10;99.90;;;;;;5090817;28;20705;-60
2021/09/01 09:30:41;;;;;;;4.40;1.85;;;19.30;99.90;;;;;;5093417;28;20791;-61
2021/09/01 09:33:11;;;;;;;3.28;2.00;;;19.40;99.90;;;;;;5094036;28;20465;-61
2021/09/01 09:36:03;;;;;;;2.80;1.90;;;19.50;99.90;;;;;;5095398;28;20442;-62
2021/09/01 09:38:35;;;;;;;3.70;2.80;;;19.80;99.90;;;;;;5073772;28;20429;-62
2021/09/01 09:41:04;;;;;;;2.03;1.73;;;19.80;99.90;;;;;;5096285;28;20704;-62
2021/09/01 09:43:33;;;;;;;2.22;2.03;;;19.70;99.90;;;;;;5095650;28;20427;-63
2021/09/01 09:46:06;;;;;;;3.30;1.80;;;19.70;99.90;;;;;;5094861;28;20501;-63
2021/09/01 09:48:36;;;;;;;2.95;1.70;;;19.70;99.90;;;;;;5093756;28;20450;-62
2021/09/01 09:51:05;;;;;;;2.22;1.40;;;19.90;99.90;;;;;;5095065;28;20426;-63
2021/09/01 09:53:41;;;;;;;1.73;1.35;;;20.10;99.90;;;;;;5095987;28;20425;-62
2021/09/01 09:56:10;;;;;;;3.03;1.50;;;20.20;99.90;;;;;;5094802;28;20425;-63
2021/09/01 09:58:42;;;;;;;2.80;1.20;;;20.30;99.90;;;;;;5095114;28;20425;-63
2021/09/01 10:01:11;;;;;;;2.17;1.17;;;20.40;99.90;;;;;;5094621;28;20418;-63
2021/09/01 10:03:41;;;;;;;1.50;1.17;;;20.60;99.90;;;;;;5094915;28;20428;-62
2021/09/01 10:06:09;;;;;;;2.10;1.30;;;20.80;99.90;;;;;;5094838;28;20509;-64
2021/09/01 10:08:38;;;;;;;1.20;0.90;;;20.90;99.90;;;;;;5093748;28;20509;-64
2021/09/01 10:11:07;;;;;;;1.48;1.10;;;20.90;99.90;;;;;;5093982;28;20492;-63
2021/09/01 10:13:34;;;;;;;2.10;1.10;;;20.80;99.90;;;;;;5093525;28;20853;-64
2021/09/01 10:16:14;;;;;;;1.60;1.10;;;21.00;99.90;;;;;;5094052;28;20524;-64
2021/09/01 10:18:42;;;;;;;2.20;1.10;;;21.30;99.90;;;;;;5094961;28;20430;-63
2021/09/01 10:21:10;;;;;;;2.40;1.25;;;21.40;99.90;;;;;;5094199;28;20409;-65
2021/09/01 10:23:39;;;;;;;1.90;1.20;;;21.50;99.90;;;;;;5092570;28;20520;-63
2021/09/01 10:26:25;;;;;;;1.55;1.02;;;21.90;99.90;;;;;;5092889;28;20819;-63
2021/09/01 10:28:52;;;;;;;1.20;0.90;;;21.80;99.90;;;;;;5093238;28;20849;-63
2021/09/01 10:31:34;;;;;;;1.50;0.98;;;21.90;99.90;;;;;;5092871;28;20418;-63
2021/09/01 10:34:19;;;;;;;1.30;1.00;;;22.10;99.90;;;;;;5093751;28;20839;-63
2021/09/01 10:36:52;;;;;;;1.20;0.80;;;22.30;99.90;;;;;;5093328;28;20992;-62
2021/09/01 10:39:49;;;;;;;1.30;0.90;;;22.20;99.90;;;;;;5091537;28;20433;-63
2021/09/01 10:42:39;;;;;;;1.20;0.97;;;22.40;99.90;;;;;;5089861;28;20512;-64
2021/09/01 10:45:09;;;;;;;1.33;1.08;;;22.60;99.90;;;;;;5092477;28;20417;-64
2021/09/01 10:48:06;;;;;;;1.63;0.93;;;23.00;99.90;;;;;;5092686;28;20465;-63
2021/09/01 10:50:35;;;;;;;2.13;0.90;;;23.40;99.90;;;;;;5092535;28;20451;-64
2021/09/01 10:53:04;;;;;;;2.03;0.95;;;23.20;99.90;;;;;;5092150;28;20432;-64
2021/09/01 10:55:32;;;;;;;1.35;1.00;;;23.10;99.90;;;;;;5091472;28;20418;-63
2021/09/01 10:58:20;;;;;;;1.23;1.00;;;23.40;99.90;;;;;;5090461;28;20512;-63
2021/09/01 11:00:53;;;;;;;1.70;0.90;;;23.50;99.90;;;;;;5093534;28;20428;-64
2021/09/01 11:03:31;;;;;;;1.42;0.90;;;23.40;99.90;;;;;;5093225;28;20449;-64
2021/09/01 11:06:25;;;;;;;1.25;1.00;;;23.50;99.90;;;;;;5092628;28;20801;-64
2021/09/01 11:09:08;;;;;;;1.20;1.00;;;23.40;99.90;;;;;;5093227;28;20433;-64
2021/09/01 11:11:53;;;;;;;1.60;1.20;;;23.80;99.90;;;;;;5091121;28;20518;-64
2021/09/01 11:14:37;;;;;;;1.73;0.93;;;24.30;99.90;;;;;;5093558;28;20457;-64
2021/09/01 11:17:06;;;;;;;1.20;1.00;;;24.40;99.90;;;;;;5090923;28;20710;-65
2021/09/01 11:19:35;;;;;;;1.50;1.00;;;24.80;99.90;;;;;;5091409;28;20433;-63
2021/09/01 11:22:06;;;;;;;1.33;1.00;;;24.60;99.90;;;;;;5092830;28;20915;-63
2021/09/01 11:24:43;;;;;;;1.80;1.00;;;24.30;99.90;;;;;;5093959;28;20854;-63
2021/09/01 11:27:12;;;;;;;1.40;1.10;;;24.50;99.90;;;;;;5095396;28;20872;-63
2021/09/01 11:29:39;;;;;;;1.95;1.00;;;24.90;99.90;;;;;;5093024;28;20428;-63
2021/09/01 11:32:07;;;;;;;1.20;0.90;;;25.00;99.90;;;;;;5092462;28;20856;-64
2021/09/01 11:34:35;;;;;;;1.95;1.00;;;25.00;99.90;;;;;;5089488;28;20623;-65
2021/09/01 11:37:03;;;;;;;1.50;1.00;;;25.20;99.90;;;;;;5107817;28;20424;-64
2021/09/01 11:39:30;;;;;;;1.50;1.00;;;25.40;99.90;;;;;;5110226;28;20416;-64
2021/09/01 11:41:58;;;;;;;2.03;0.98;;;25.80;99.90;;;;;;5111340;28;20419;-65
2021/09/01 11:44:26;;;;;;;1.55;0.90;;;25.90;99.90;;;;;;5110608;28;20450;-64
2021/09/01 11:46:53;;;;;;;1.50;0.90;;;25.10;99.90;;;;;;5111339;28;20513;-64
2021/09/01 11:49:20;;;;;;;1.27;0.90;;;24.70;99.90;;;;;;5110412;28;20470;-64
2021/09/01 11:51:50;;;;;;;1.40;0.90;;;24.30;99.90;;;;;;5114644;28;20426;-65
2021/09/01 11:54:18;;;;;;;1.10;0.80;;;24.60;99.90;;;;;;5117562;28;20711;-64
2021/09/01 11:56:46;;;;;;;1.30;1.00;;;24.90;99.90;;;;;;5116173;28;20435;-64
2021/09/01 11:59:14;;;;;;;1.20;0.93;;;24.70;99.90;;;;;;5115764;28;20850;-64
2021/09/01 12:01:47;;;;;;;1.30;0.80;;;24.30;99.90;;;;;;5116821;28;20447;-65
2021/09/01 12:04:17;;;;;;;1.20;0.80;;;24.10;99.90;;;;;;5116167;28;20433;-66
2021/09/01 12:06:46;;;;;;;1.70;0.90;;;23.70;99.90;;;;;;5113996;28;20411;-67
2021/09/01 12:09:15;;;;;;;1.20;0.90;;;23.30;99.90;;;;;;5113686;28;20467;-66
2021/09/01 12:11:51;;;;;;;1.60;0.98;;;22.90;99.90;;;;;;5112126;28;20469;-65
2021/09/01 12:14:20;;;;;;;1.20;1.00;;;22.70;99.90;;;;;;5111377;28;20562;-65
2021/09/01 12:16:47;;;;;;;1.60;1.00;;;23.00;99.90;;;;;;5109051;28;20735;-65
2021/09/01 12:19:14;;;;;;;1.30;0.90;;;23.60;99.90;;;;;;5108876;28;20435;-66
2021/09/01 12:21:54;;;;;;;1.20;0.80;;;24.00;99.90;;;;;;5107026;28;20423;-66
2021/09/01 12:24:26;;;;;;;1.80;0.90;;;24.50;99.90;;;;;;5108079;28;20428;-66
2021/09/01 12:26:56;;;;;;;1.10;0.90;;;25.10;99.90;;;;;;5110669;28;20459;-67
2021/09/01 12:29:25;;;;;;;1.00;0.80;;;25.60;99.90;;;;;;5110126;28;20427;-67
2021/09/01 12:31:53;;;;;;;1.30;0.90;;;25.70;99.90;;;;;;5111934;28;20731;-67
2021/09/01 12:34:26;;;;;;;1.10;0.80;;;25.50;99.90;;;;;;5111333;28;20431;-67
2021/09/01 12:37:05;;;;;;;1.20;0.90;;;25.30;99.90;;;;;;5112824;28;20428;-67
2021/09/01 12:39:50;;;;;;;1.40;0.90;;;25.30;99.90;;;;;;5112193;28;20517;-67
2021/09/01 12:42:25;;;;;;;1.20;0.90;;;25.10;99.90;;;;;;5112218;28;20412;-67
2021/09/01 12:44:55;;;;;;;1.30;0.90;;;24.90;99.90;;;;;;5113624;28;20416;-67
2021/09/01 12:47:22;;;;;;;1.23;0.90;;;24.50;99.90;;;;;;5111970;28;20420;-66
2021/09/01 12:49:52;;;;;;;2.10;1.10;;;24.00;99.90;;;;;;5113981;28;20413;-65
2021/09/01 12:52:24;;;;;;;1.48;0.80;;;23.90;99.90;;;;;;5113981;28;20877;-66
2021/09/01 12:54:55;;;;;;;1.10;0.80;;;24.20;99.90;;;;;;5101357;28;20451;-65
2021/09/01 12:57:23;;;;;;;1.42;0.80;;;24.80;99.90;;;;;;5099516;28;20752;-64